Skiathos, Hellas

10:13:EEST den 23. juli 2014 (GMT +0300)
Skiathos (LGSK) H.o.h 49 ft | 39.18 °N, 23.50 °E | Change Station
Gjeldende advarsel: Thunderstorms

Current weather conditions updated 23 minutes ago

Partly Cloudy
Delvis skyet
81 °F
Feels Like 83 °F
N
8
Vind Variabel Vind from NV

Today is forecast to be Cooler than yesterday.

I dag
High -- | Low -- °F
--% Chance of Precip.
I går
High -- | Low -- °F
Precip. -- tommer
6:18 AM 8:46 PM
Minkende sigd, 12% visible
Lufttrykk 29.68 tommer
Sikt 6.2 eng. mil
Skyet Few 2000 ft
Varmeindeks 83 °F
Duggpunkt 68 °F
Fuktighet 65%
Regn 0.00 tommer
Snødybde Not available.
UV 4 av 12
Pollen Not available.
Luftkvalitet Not available.
Flu Activity Not available.
METAR LGSK 230650Z 32007KT 9999 FEW020TCU 27/20 Q1005

More Conditions Fewer Conditions

Lufttrykk 29.68 tommer
Sikt 6.2 eng. mil
Skyet Few 2000 ft
Varmeindeks 83 °F
Duggpunkt 68 °F
Fuktighet 65%
Regn 0.00 tommer
Snødybde Not available.
UV 4 av 12
Pollen Not available.
Luftkvalitet Not available.
Flu Activity Not available.
METAR LGSK 230650Z 32007KT 9999 FEW020TCU 27/20 Q1005

More Conditions Fewer Conditions

10-Day Weather Forecast

Almanac

Astronomi

Jul. 23, 2014 Oppgang Nedgang
Virkelig tid 06:18 EEST 20:46 EEST
Tussmørke 05:47 EEST 21:16 EEST
Nautisk skumring 05:09 EEST 21:54 EEST
Astronomisk skumring 04:27 EEST 22:36 EEST
Månen 03:22 EEST 17:59 EEST
Lengde av synlig lys 15h 29m
Dagens lengde
14h 27m
Tomorrow will be 1m 39s shorter.
Minkende sigd, 12% of the Moon is Illuminated
I dag
Minkende sigd
Jul 26
Ny
Aug 3
Første kvarter
Aug 10
Fullmåne
Aug 17
Siste kvarter

Gårsdagens min/max

Country Highs Country Lows

Community

WunderPhotos

Upload Photos

1,736,527 photos uploaded!

Nearby

Snødybde

Not available.

Earthquake Activity

By Distance Mag. Time & Date
No recent earthquake activity has been reported nearby.
Minimum magnitude displayed is 2.5.

Coastal Water Temperatures

Sted Temperatur
Ingen stasjoner raporterer

Nearby Weather Stations

Stasjonens lokasjon Temp. Varmeindeks Duggpunkt Fuktighet Vind Precip. H.o.h Oppdatert Type
Skopelos Greece, Ελλάδα 84.9 °F 91 °F 73 °F 67% SSV  i  2.9 mph 0.00 tommer / hr 259 ft 10:13 AM EEST Rapid Fire
ALONISSOS 78.6 °F 81 °F 72 °F 80% VNV  i  10.0 mph 0.00 tommer / hr 125 ft 10:05 AM EEST Normal

Show More Stations Show Fewer Stations